sensor_id;sensor_type;location;lat;lon;timestamp;pressure;altitude;pressure_sealevel;temperature;humidity
18795;BME280;29610;49.022;12.114;2023-05-20T00:01:32;97878.88;;;15.04;100.00
18795;BME280;29610;49.022;12.114;2023-05-20T00:04:21;97877.53;;;14.98;100.00
18795;BME280;29610;49.022;12.114;2023-05-20T00:07:10;97891.22;;;14.98;100.00
18795;BME280;29610;49.022;12.114;2023-05-20T00:09:59;97883.00;;;14.86;100.00
18795;BME280;29610;49.022;12.114;2023-05-20T00:12:48;97874.47;;;14.75;100.00
18795;BME280;29610;49.022;12.114;2023-05-20T00:15:38;97876.41;;;14.75;100.00
18795;BME280;29610;49.022;12.114;2023-05-20T00:18:27;97867.88;;;14.64;100.00
18795;BME280;29610;49.022;12.114;2023-05-20T00:21:16;97868.22;;;14.62;100.00
18795;BME280;29610;49.022;12.114;2023-05-20T00:24:05;97875.28;;;14.51;100.00
18795;BME280;29610;49.022;12.114;2023-05-20T00:26:54;97864.78;;;14.65;100.00
18795;BME280;29610;49.022;12.114;2023-05-20T00:29:43;97857.63;;;14.49;100.00
18795;BME280;29610;49.022;12.114;2023-05-20T00:32:34;97851.72;;;14.47;100.00
18795;BME280;29610;49.022;12.114;2023-05-20T00:35:23;97860.91;;;14.42;100.00
18795;BME280;29610;49.022;12.114;2023-05-20T00:38:12;97854.88;;;14.49;100.00
18795;BME280;29610;49.022;12.114;2023-05-20T00:41:00;97855.22;;;14.35;100.00
18795;BME280;29610;49.022;12.114;2023-05-20T00:43:52;97848.75;;;14.40;100.00
18795;BME280;29610;49.022;12.114;2023-05-20T00:46:42;97848.75;;;14.40;100.00
18795;BME280;29610;49.022;12.114;2023-05-20T00:49:32;97840.41;;;14.36;100.00
18795;BME280;29610;49.022;12.114;2023-05-20T00:52:21;97838.72;;;14.32;100.00
18795;BME280;29610;49.022;12.114;2023-05-20T00:55:11;97853.88;;;14.29;100.00
18795;BME280;29610;49.022;12.114;2023-05-20T00:58:00;97851.44;;;14.04;100.00
18795;BME280;29610;49.022;12.114;2023-05-20T01:00:49;97850.28;;;14.05;100.00
18795;BME280;29610;49.022;12.114;2023-05-20T01:03:39;97857.44;;;13.97;100.00
18795;BME280;29610;49.022;12.114;2023-05-20T01:06:29;97859.63;;;14.04;100.00
18795;BME280;29610;49.022;12.114;2023-05-20T01:09:18;97849.69;;;13.99;100.00
18795;BME280;29610;49.022;12.114;2023-05-20T01:12:15;97851.19;;;13.97;100.00
18795;BME280;29610;49.022;12.114;2023-05-20T01:15:09;97845.38;;;13.98;100.00
18795;BME280;29610;49.022;12.114;2023-05-20T01:18:02;97843.41;;;13.87;100.00
18795;BME280;29610;49.022;12.114;2023-05-20T01:20:54;97840.50;;;14.04;100.00
18795;BME280;29610;49.022;12.114;2023-05-20T01:23:49;97838.97;;;13.82;100.00
18795;BME280;29610;49.022;12.114;2023-05-20T01:26:38;97829.66;;;14.07;100.00
18795;BME280;29610;49.022;12.114;2023-05-20T01:29:27;97828.50;;;13.96;100.00
18795;BME280;29610;49.022;12.114;2023-05-20T01:32:22;97831.50;;;14.03;100.00
18795;BME280;29610;49.022;12.114;2023-05-20T01:35:13;97832.06;;;14.09;100.00
18795;BME280;29610;49.022;12.114;2023-05-20T01:38:05;97833.31;;;14.11;100.00
18795;BME280;29610;49.022;12.114;2023-05-20T01:40:57;97833.53;;;14.06;100.00
18795;BME280;29610;49.022;12.114;2023-05-20T01:43:47;97831.28;;;14.08;100.00
18795;BME280;29610;49.022;12.114;2023-05-20T01:46:36;97825.34;;;14.06;100.00
18795;BME280;29610;49.022;12.114;2023-05-20T01:49:25;97830.03;;;14.18;100.00
18795;BME280;29610;49.022;12.114;2023-05-20T01:52:16;97833.66;;;14.10;100.00
18795;BME280;29610;49.022;12.114;2023-05-20T01:55:06;97822.25;;;14.08;100.00
18795;BME280;29610;49.022;12.114;2023-05-20T01:57:56;97823.19;;;14.12;100.00
18795;BME280;29610;49.022;12.114;2023-05-20T02:00:46;97819.78;;;14.15;100.00
18795;BME280;29610;49.022;12.114;2023-05-20T02:03:35;97813.63;;;14.18;100.00
18795;BME280;29610;49.022;12.114;2023-05-20T02:06:24;97820.78;;;13.98;100.00
18795;BME280;29610;49.022;12.114;2023-05-20T02:09:14;97824.53;;;14.06;100.00
18795;BME280;29610;49.022;12.114;2023-05-20T02:12:05;97811.34;;;14.08;100.00
18795;BME280;29610;49.022;12.114;2023-05-20T02:14:56;97819.88;;;14.06;100.00
18795;BME280;29610;49.022;12.114;2023-05-20T02:17:45;97823.53;;;14.10;100.00
18795;BME280;29610;49.022;12.114;2023-05-20T02:20:35;97819.78;;;14.15;100.00
18795;BME280;29610;49.022;12.114;2023-05-20T02:23:24;97815.09;;;14.15;100.00
18795;BME280;29610;49.022;12.114;2023-05-20T02:26:13;97813.38;;;13.99;100.00
18795;BME280;29610;49.022;12.114;2023-05-20T02:29:02;97810.78;;;14.14;100.00
18795;BME280;29610;49.022;12.114;2023-05-20T02:31:52;97806.66;;;13.96;100.00
18795;BME280;29610;49.022;12.114;2023-05-20T02:34:41;97811.91;;;14.01;100.00
18795;BME280;29610;49.022;12.114;2023-05-20T02:37:30;97806.22;;;14.06;100.00
18795;BME280;29610;49.022;12.114;2023-05-20T02:40:19;97811.44;;;13.87;100.00
18795;BME280;29610;49.022;12.114;2023-05-20T02:43:08;97812.69;;;13.90;100.00
18795;BME280;29610;49.022;12.114;2023-05-20T02:45:57;97818.38;;;13.97;100.00
18795;BME280;29610;49.022;12.114;2023-05-20T02:48:47;97818.84;;;13.99;100.00
18795;BME280;29610;49.022;12.114;2023-05-20T02:51:37;97813.34;;;13.87;100.00
18795;BME280;29610;49.022;12.114;2023-05-20T02:54:25;97823.50;;;13.86;100.00
18795;BME280;29610;49.022;12.114;2023-05-20T02:57:14;97816.22;;;13.90;100.00
18795;BME280;29610;49.022;12.114;2023-05-20T03:00:05;97821.81;;;13.94;100.00
18795;BME280;29610;49.022;12.114;2023-05-20T03:02:54;97815.41;;;13.90;100.00
18795;BME280;29610;49.022;12.114;2023-05-20T03:05:45;97816.81;;;13.96;100.00
18795;BME280;29610;49.022;12.114;2023-05-20T03:08:34;97822.81;;;13.89;100.00
18795;BME280;29610;49.022;12.114;2023-05-20T03:11:23;97816.31;;;13.82;100.00
18795;BME280;29610;49.022;12.114;2023-05-20T03:14:12;97815.66;;;13.85;100.00
18795;BME280;29610;49.022;12.114;2023-05-20T03:17:01;97819.34;;;13.56;100.00
18795;BME280;29610;49.022;12.114;2023-05-20T03:19:49;97819.91;;;13.50;100.00
18795;BME280;29610;49.022;12.114;2023-05-20T03:22:40;97817.66;;;13.76;100.00
18795;BME280;29610;49.022;12.114;2023-05-20T03:25:29;97815.38;;;13.66;100.00
18795;BME280;29610;49.022;12.114;2023-05-20T03:28:18;97816.00;;;13.83;100.00
18795;BME280;29610;49.022;12.114;2023-05-20T03:31:07;97822.34;;;13.75;100.00
18795;BME280;29610;49.022;12.114;2023-05-20T03:33:56;97835.06;;;13.71;100.00
18795;BME280;29610;49.022;12.114;2023-05-20T03:36:44;97831.53;;;13.71;100.00
18795;BME280;29610;49.022;12.114;2023-05-20T03:39:35;97827.13;;;13.90;100.00
18795;BME280;29610;49.022;12.114;2023-05-20T03:42:23;97816.88;;;13.75;100.00
18795;BME280;29610;49.022;12.114;2023-05-20T03:45:12;97811.66;;;13.82;100.00
18795;BME280;29610;49.022;12.114;2023-05-20T03:48:11;97815.28;;;13.74;100.00
18795;BME280;29610;49.022;12.114;2023-05-20T03:51:01;97811.22;;;13.92;100.00
18795;BME280;29610;49.022;12.114;2023-05-20T03:53:50;97813.47;;;13.90;100.00
18795;BME280;29610;49.022;12.114;2023-05-20T03:56:41;97823.50;;;13.98;100.00
18795;BME280;29610;49.022;12.114;2023-05-20T03:59:29;97815.44;;;14.02;100.00
18795;BME280;29610;49.022;12.114;2023-05-20T04:02:18;97816.47;;;13.97;100.00
18795;BME280;29610;49.022;12.114;2023-05-20T04:05:08;97818.25;;;13.93;100.00
18795;BME280;29610;49.022;12.114;2023-05-20T04:07:58;97815.91;;;14.16;100.00
18795;BME280;29610;49.022;12.114;2023-05-20T04:10:47;97814.88;;;14.08;100.00
18795;BME280;29610;49.022;12.114;2023-05-20T04:13:38;97808.84;;;14.15;100.00
18795;BME280;29610;49.022;12.114;2023-05-20T04:16:27;97815.09;;;14.15;100.00
18795;BME280;29610;49.022;12.114;2023-05-20T04:19:16;97801.94;;;14.29;100.00
18795;BME280;29610;49.022;12.114;2023-05-20T04:22:06;97808.28;;;14.33;100.00
18795;BME280;29610;49.022;12.114;2023-05-20T04:24:54;97807.84;;;14.31;100.00
18795;BME280;29610;49.022;12.114;2023-05-20T04:27:43;97813.66;;;14.42;100.00
18795;BME280;29610;49.022;12.114;2023-05-20T04:30:34;97810.34;;;14.36;100.00
18795;BME280;29610;49.022;12.114;2023-05-20T04:33:23;97808.41;;;14.61;100.00
18795;BME280;29610;49.022;12.114;2023-05-20T04:36:14;97810.47;;;14.40;100.00
18795;BME280;29610;49.022;12.114;2023-05-20T04:39:04;97817.50;;;14.65;100.00
18795;BME280;29610;49.022;12.114;2023-05-20T04:41:54;97817.59;;;14.68;100.00
18795;BME280;29610;49.022;12.114;2023-05-20T04:44:43;97808.34;;;14.73;100.00
18795;BME280;29610;49.022;12.114;2023-05-20T04:47:36;97813.72;;;14.82;100.00
18795;BME280;29610;49.022;12.114;2023-05-20T04:50:26;97810.09;;;14.65;100.00
18795;BME280;29610;49.022;12.114;2023-05-20T04:53:15;97807.13;;;14.71;100.00
18795;BME280;29610;49.022;12.114;2023-05-20T04:56:05;97809.16;;;14.61;100.00
18795;BME280;29610;49.022;12.114;2023-05-20T04:58:54;97810.09;;;14.65;100.00
18795;BME280;29610;49.022;12.114;2023-05-20T05:01:43;97801.38;;;14.88;100.00
18795;BME280;29610;49.022;12.114;2023-05-20T05:04:33;97799.97;;;15.06;100.00
18795;BME280;29610;49.022;12.114;2023-05-20T05:07:22;97802.19;;;14.88;100.00
18795;BME280;29610;49.022;12.114;2023-05-20T05:10:12;97802.94;;;15.01;100.00
18795;BME280;29610;49.022;12.114;2023-05-20T05:13:02;97809.66;;;15.03;100.00
18795;BME280;29610;49.022;12.114;2023-05-20T05:15:58;97807.75;;;15.19;100.00
18795;BME280;29610;49.022;12.114;2023-05-20T05:18:49;97800.00;;;15.21;100.00
18795;BME280;29610;49.022;12.114;2023-05-20T05:21:39;97809.28;;;15.17;100.00
18795;BME280;29610;49.022;12.114;2023-05-20T05:24:28;97806.22;;;15.34;100.00
18795;BME280;29610;49.022;12.114;2023-05-20T05:27:17;97806.28;;;15.49;100.00
18795;BME280;29610;49.022;12.114;2023-05-20T05:30:07;97805.44;;;15.76;100.00
18795;BME280;29610;49.022;12.114;2023-05-20T05:32:56;97805.91;;;15.94;100.00
18795;BME280;29610;49.022;12.114;2023-05-20T05:35:45;97799.19;;;15.91;100.00
18795;BME280;29610;49.022;12.114;2023-05-20T05:38:36;97800.44;;;16.25;100.00
18795;BME280;29610;49.022;12.114;2023-05-20T05:41:24;97803.63;;;16.11;100.00
18795;BME280;29610;49.022;12.114;2023-05-20T05:44:14;97795.13;;;16.01;100.00
18795;BME280;29610;49.022;12.114;2023-05-20T05:47:03;97799.56;;;15.74;100.00
18795;BME280;29610;49.022;12.114;2023-05-20T05:49:53;97798.38;;;15.60;100.00
18795;BME280;29610;49.022;12.114;2023-05-20T05:52:42;97793.63;;;15.72;100.00
18795;BME280;29610;49.022;12.114;2023-05-20T05:55:33;97795.03;;;15.82;100.00
18795;BME280;29610;49.022;12.114;2023-05-20T05:58:22;97783.63;;;16.27;100.00
18795;BME280;29610;49.022;12.114;2023-05-20T06:01:11;97784.53;;;16.31;100.00
18795;BME280;29610;49.022;12.114;2023-05-20T06:04:00;97786.06;;;16.63;100.00
18795;BME280;29610;49.022;12.114;2023-05-20T06:06:51;97783.06;;;17.06;100.00
18795;BME280;29610;49.022;12.114;2023-05-20T06:09:39;97785.53;;;17.11;100.00
18795;BME280;29610;49.022;12.114;2023-05-20T06:12:30;97773.72;;;17.07;100.00
18795;BME280;29610;49.022;12.114;2023-05-20T06:15:19;97779.69;;;17.12;100.00
18795;BME280;29610;49.022;12.114;2023-05-20T06:18:08;97784.31;;;17.27;100.00
18795;BME280;29610;49.022;12.114;2023-05-20T06:20:58;97778.59;;;17.17;100.00
18795;BME280;29610;49.022;12.114;2023-05-20T06:23:47;97781.41;;;17.01;100.00
18795;BME280;29610;49.022;12.114;2023-05-20T06:26:36;97779.97;;;17.07;100.00
18795;BME280;29610;49.022;12.114;2023-05-20T06:29:28;97774.81;;;17.44;100.00
18795;BME280;29610;49.022;12.114;2023-05-20T06:32:17;97771.81;;;17.30;100.00
18795;BME280;29610;49.022;12.114;2023-05-20T06:35:07;97788.72;;;17.51;100.00
18795;BME280;29610;49.022;12.114;2023-05-20T06:37:56;97769.91;;;17.72;100.00
18795;BME280;29610;49.022;12.114;2023-05-20T06:40:47;97765.53;;;17.71;100.00
18795;BME280;29610;49.022;12.114;2023-05-20T06:43:36;97763.91;;;17.89;100.00
18795;BME280;29610;49.022;12.114;2023-05-20T06:46:38;97772.88;;;18.09;100.00
18795;BME280;29610;49.022;12.114;2023-05-20T06:49:32;97762.16;;;18.26;100.00
18795;BME280;29610;49.022;12.114;2023-05-20T06:52:21;97772.28;;;17.96;100.00
18795;BME280;29610;49.022;12.114;2023-05-20T06:55:10;97762.03;;;18.19;100.00
18795;BME280;29610;49.022;12.114;2023-05-20T06:57:59;97754.81;;;18.34;100.00
18795;BME280;29610;49.022;12.114;2023-05-20T07:00:49;97755.78;;;18.45;100.00
18795;BME280;29610;49.022;12.114;2023-05-20T07:03:39;97752.84;;;18.57;100.00
18795;BME280;29610;49.022;12.114;2023-05-20T07:06:29;97753.16;;;18.52;100.00
18795;BME280;29610;49.022;12.114;2023-05-20T07:09:19;97759.56;;;18.37;100.00
18795;BME280;29610;49.022;12.114;2023-05-20T07:12:08;97750.16;;;18.38;100.00
18795;BME280;29610;49.022;12.114;2023-05-20T07:14:57;97746.09;;;18.54;100.00
18795;BME280;29610;49.022;12.114;2023-05-20T07:17:46;97747.22;;;18.76;100.00
18795;BME280;29610;49.022;12.114;2023-05-20T07:20:37;97753.16;;;18.81;100.00
18795;BME280;29610;49.022;12.114;2023-05-20T07:23:32;97755.72;;;18.93;100.00
18795;BME280;29610;49.022;12.114;2023-05-20T07:26:21;97746.19;;;19.21;100.00
18795;BME280;29610;49.022;12.114;2023-05-20T07:29:10;97748.84;;;19.43;100.00
18795;BME280;29610;49.022;12.114;2023-05-20T07:31:59;97745.91;;;19.29;100.00
18795;BME280;29610;49.022;12.114;2023-05-20T07:34:49;97744.03;;;19.73;100.00
18795;BME280;29610;49.022;12.114;2023-05-20T07:37:40;97737.81;;;19.83;100.00
18795;BME280;29610;49.022;12.114;2023-05-20T07:40:29;97726.06;;;20.37;100.00
18795;BME280;29610;49.022;12.114;2023-05-20T07:43:18;97727.72;;;21.20;100.00
18795;BME280;29610;49.022;12.114;2023-05-20T07:46:07;97721.19;;;22.23;100.00
18795;BME280;29610;49.022;12.114;2023-05-20T07:48:58;97735.03;;;22.09;100.00
18795;BME280;29610;49.022;12.114;2023-05-20T07:51:47;97721.56;;;22.46;100.00
18795;BME280;29610;49.022;12.114;2023-05-20T07:54:37;97722.59;;;23.05;100.00
18795;BME280;29610;49.022;12.114;2023-05-20T07:57:27;97722.59;;;23.12;100.00
18795;BME280;29610;49.022;12.114;2023-05-20T08:00:16;97723.91;;;22.69;100.00
18795;BME280;29610;49.022;12.114;2023-05-20T08:03:05;97722.28;;;22.89;100.00
18795;BME280;29610;49.022;12.114;2023-05-20T08:06:13;97716.00;;;22.32;100.00
18795;BME280;29610;49.022;12.114;2023-05-20T08:09:03;97710.84;;;22.69;100.00
18795;BME280;29610;49.022;12.114;2023-05-20T08:11:56;97718.34;;;22.83;100.00
18795;BME280;29610;49.022;12.114;2023-05-20T08:14:45;97723.53;;;21.79;100.00
18795;BME280;29610;49.022;12.114;2023-05-20T08:17:34;97726.50;;;21.14;100.00
18795;BME280;29610;49.022;12.114;2023-05-20T08:20:26;97717.63;;;22.05;100.00
18795;BME280;29610;49.022;12.114;2023-05-20T08:23:16;97710.50;;;22.29;100.00
18795;BME280;29610;49.022;12.114;2023-05-20T08:26:05;97712.84;;;22.62;100.00
18795;BME280;29610;49.022;12.114;2023-05-20T08:28:58;97715.25;;;22.35;100.00
18795;BME280;29610;49.022;12.114;2023-05-20T08:31:48;97718.78;;;22.46;100.00
18795;BME280;29610;49.022;12.114;2023-05-20T08:34:37;97712.88;;;22.23;100.00
18795;BME280;29610;49.022;12.114;2023-05-20T08:37:26;97703.38;;;22.56;100.00
18795;BME280;29610;49.022;12.114;2023-05-20T08:40:16;97706.78;;;23.02;100.00
18795;BME280;29610;49.022;12.114;2023-05-20T08:43:04;97710.09;;;22.58;100.00
18795;BME280;29610;49.022;12.114;2023-05-20T08:45:55;97707.72;;;22.32;100.00
18795;BME280;29610;49.022;12.114;2023-05-20T08:48:49;97698.22;;;22.40;100.00
18795;BME280;29610;49.022;12.114;2023-05-20T08:51:38;97703.63;;;23.00;100.00
18795;BME280;29610;49.022;12.114;2023-05-20T08:54:42;97708.47;;;24.16;100.00
18795;BME280;29610;49.022;12.114;2023-05-20T08:57:36;97699.03;;;24.06;100.00
18795;BME280;29610;49.022;12.114;2023-05-20T09:00:26;97694.00;;;24.38;100.00
18795;BME280;29610;49.022;12.114;2023-05-20T09:03:17;97690.97;;;24.22;100.00
18795;BME280;29610;49.022;12.114;2023-05-20T09:06:08;97690.03;;;25.10;100.00
18795;BME280;29610;49.022;12.114;2023-05-20T09:08:57;97690.81;;;25.14;100.00
18795;BME280;29610;49.022;12.114;2023-05-20T09:11:47;97684.91;;;25.69;100.00
18795;BME280;29610;49.022;12.114;2023-05-20T09:14:36;97696.41;;;25.11;100.00
18795;BME280;29610;49.022;12.114;2023-05-20T09:17:25;97690.41;;;24.41;100.00
18795;BME280;29610;49.022;12.114;2023-05-20T09:20:16;97690.38;;;25.16;100.00
18795;BME280;29610;49.022;12.114;2023-05-20T09:23:07;97686.78;;;26.25;100.00
18795;BME280;29610;49.022;12.114;2023-05-20T09:25:59;97681.44;;;25.31;100.00
18795;BME280;29610;49.022;12.114;2023-05-20T09:28:48;97675.47;;;25.29;100.00
18795;BME280;29610;49.022;12.114;2023-05-20T09:31:37;97674.84;;;26.71;100.00
18795;BME280;29610;49.022;12.114;2023-05-20T09:34:28;97653.03;;;27.76;100.00
18795;BME280;29610;49.022;12.114;2023-05-20T09:37:21;97667.03;;;26.39;100.00
18795;BME280;29610;49.022;12.114;2023-05-20T09:40:12;97665.53;;;25.32;100.00
18795;BME280;29610;49.022;12.114;2023-05-20T09:43:04;97666.03;;;24.93;100.00
18795;BME280;29610;49.022;12.114;2023-05-20T09:45:54;97669.03;;;24.76;100.00
18795;BME280;29610;49.022;12.114;2023-05-20T09:48:44;97666.09;;;24.12;100.00
18795;BME280;29610;49.022;12.114;2023-05-20T09:51:33;97654.31;;;23.94;100.00
18795;BME280;29610;49.022;12.114;2023-05-20T09:54:25;97653.28;;;24.96;100.00
18795;BME280;29610;49.022;12.114;2023-05-20T09:57:15;97659.69;;;24.93;100.00
18795;BME280;29610;49.022;12.114;2023-05-20T10:00:06;97658.59;;;24.83;100.00
18795;BME280;29610;49.022;12.114;2023-05-20T10:02:59;97653.59;;;25.31;100.00
18795;BME280;29610;49.022;12.114;2023-05-20T10:06:09;97628.53;;;26.54;100.00
18795;BME280;29610;49.022;12.114;2023-05-20T10:09:36;97647.03;;;26.44;100.00
18795;BME280;29610;49.022;12.114;2023-05-20T10:12:40;97643.25;;;26.12;100.00
18795;BME280;29610;49.022;12.114;2023-05-20T10:15:43;97637.72;;;25.32;100.00
18795;BME280;29610;49.022;12.114;2023-05-20T10:18:48;97635.19;;;25.44;100.00
18795;BME280;29610;49.022;12.114;2023-05-20T10:21:41;97640.28;;;25.19;100.00
18795;BME280;29610;49.022;12.114;2023-05-20T10:24:34;97647.19;;;24.78;100.00
18795;BME280;29610;49.022;12.114;2023-05-20T10:27:24;97637.72;;;24.72;100.00
18795;BME280;29610;49.022;12.114;2023-05-20T10:30:17;97639.22;;;25.66;100.00
18795;BME280;29610;49.022;12.114;2023-05-20T10:33:06;97636.97;;;26.50;100.00
18795;BME280;29610;49.022;12.114;2023-05-20T10:35:58;97636.41;;;26.59;100.00
18795;BME280;29610;49.022;12.114;2023-05-20T10:38:52;97630.56;;;27.12;95.68
18795;BME280;29610;49.022;12.114;2023-05-20T10:41:42;97626.22;;;26.91;94.45
18795;BME280;29610;49.022;12.114;2023-05-20T10:44:40;97617.88;;;27.27;87.90
18795;BME280;29610;49.022;12.114;2023-05-20T10:47:30;97618.78;;;26.85;95.20
18795;BME280;29610;49.022;12.114;2023-05-20T10:50:27;97614.91;;;27.86;96.32
18795;BME280;29610;49.022;12.114;2023-05-20T10:53:16;97621.41;;;27.47;76.89
18795;BME280;29610;49.022;12.114;2023-05-20T10:56:22;97614.91;;;27.70;76.77
18795;BME280;29610;49.022;12.114;2023-05-20T10:59:13;97611.66;;;27.19;81.49
18795;BME280;29610;49.022;12.114;2023-05-20T11:02:03;97610.13;;;26.99;86.03
18795;BME280;29610;49.022;12.114;2023-05-20T11:04:52;97607.56;;;27.60;84.56
18795;BME280;29610;49.022;12.114;2023-05-20T11:07:44;97610.63;;;27.65;86.03
18795;BME280;29610;49.022;12.114;2023-05-20T11:10:33;97609.09;;;28.70;91.48
18795;BME280;29610;49.022;12.114;2023-05-20T11:13:23;97603.56;;;28.95;78.92
18795;BME280;29610;49.022;12.114;2023-05-20T11:16:14;97592.47;;;29.20;66.91
18795;BME280;29610;49.022;12.114;2023-05-20T11:19:03;97585.06;;;29.51;70.18
18795;BME280;29610;49.022;12.114;2023-05-20T11:21:54;97587.75;;;27.86;74.46
18795;BME280;29610;49.022;12.114;2023-05-20T11:24:43;97583.06;;;27.99;70.84
18795;BME280;29610;49.022;12.114;2023-05-20T11:27:32;97584.19;;;29.41;69.79
18795;BME280;29610;49.022;12.114;2023-05-20T11:30:22;97567.69;;;30.83;59.16
18795;BME280;29610;49.022;12.114;2023-05-20T11:33:13;97574.19;;;32.30;51.62
18795;BME280;29610;49.022;12.114;2023-05-20T11:36:04;97581.22;;;32.16;51.13
18795;BME280;29610;49.022;12.114;2023-05-20T11:39:13;97586.78;;;30.76;49.38
18795;BME280;29610;49.022;12.114;2023-05-20T11:42:03;97583.63;;;29.59;49.66
18795;BME280;29610;49.022;12.114;2023-05-20T11:44:52;97573.75;;;31.34;54.37
18795;BME280;29610;49.022;12.114;2023-05-20T11:47:41;97574.97;;;31.55;49.27
18795;BME280;29610;49.022;12.114;2023-05-20T11:50:37;97569.81;;;32.20;48.53
18795;BME280;29610;49.022;12.114;2023-05-20T11:53:27;97563.91;;;32.45;50.35
18795;BME280;29610;49.022;12.114;2023-05-20T11:56:16;97564.69;;;31.79;45.24
18795;BME280;29610;49.022;12.114;2023-05-20T11:59:07;97563.75;;;32.39;47.50
18795;BME280;29610;49.022;12.114;2023-05-20T12:01:56;97565.06;;;31.41;45.87
18795;BME280;29610;49.022;12.114;2023-05-20T12:04:45;97570.28;;;29.25;51.35
18795;BME280;29610;49.022;12.114;2023-05-20T12:07:36;97573.56;;;27.97;56.51
18795;BME280;29610;49.022;12.114;2023-05-20T12:10:25;97565.09;;;27.52;59.74
18795;BME280;29610;49.022;12.114;2023-05-20T12:13:13;97573.13;;;26.79;61.89
18795;BME280;29610;49.022;12.114;2023-05-20T12:16:03;97571.19;;;27.47;68.38
18795;BME280;29610;49.022;12.114;2023-05-20T12:18:52;97571.44;;;27.53;67.74
18795;BME280;29610;49.022;12.114;2023-05-20T12:21:41;97569.97;;;27.96;62.09
18795;BME280;29610;49.022;12.114;2023-05-20T12:24:35;97567.25;;;27.77;61.75
18795;BME280;29610;49.022;12.114;2023-05-20T12:27:23;97571.97;;;26.76;67.36
18795;BME280;29610;49.022;12.114;2023-05-20T12:30:15;97564.19;;;27.03;70.68
18795;BME280;29610;49.022;12.114;2023-05-20T12:33:04;97567.94;;;26.97;63.30
18795;BME280;29610;49.022;12.114;2023-05-20T12:35:53;97564.22;;;26.45;64.09
18795;BME280;29610;49.022;12.114;2023-05-20T12:38:42;97551.50;;;26.83;69.32
18795;BME280;29610;49.022;12.114;2023-05-20T12:41:32;97555.41;;;27.21;67.43
18795;BME280;29610;49.022;12.114;2023-05-20T12:44:21;97553.28;;;27.61;68.48
18795;BME280;29610;49.022;12.114;2023-05-20T12:47:10;97553.31;;;28.21;68.03
18795;BME280;29610;49.022;12.114;2023-05-20T12:50:00;97556.97;;;28.63;64.95
18795;BME280;29610;49.022;12.114;2023-05-20T12:52:51;97549.09;;;28.29;61.59
18795;BME280;29610;49.022;12.114;2023-05-20T12:55:40;97549.56;;;28.28;61.06
18795;BME280;29610;49.022;12.114;2023-05-20T12:58:31;97555.41;;;29.16;77.72
18795;BME280;29610;49.022;12.114;2023-05-20T13:01:20;97539.13;;;29.86;60.35
18795;BME280;29610;49.022;12.114;2023-05-20T13:04:08;97538.97;;;30.58;58.29
18795;BME280;29610;49.022;12.114;2023-05-20T13:06:58;97541.34;;;30.38;58.35
18795;BME280;29610;49.022;12.114;2023-05-20T13:09:47;97544.94;;;31.12;55.38
18795;BME280;29610;49.022;12.114;2023-05-20T13:12:36;97534.81;;;31.45;49.45
18795;BME280;29610;49.022;12.114;2023-05-20T13:15:26;97542.94;;;30.69;52.13
18795;BME280;29610;49.022;12.114;2023-05-20T13:18:15;97529.53;;;31.56;47.42
18795;BME280;29610;49.022;12.114;2023-05-20T13:21:05;97531.50;;;31.86;47.92
18795;BME280;29610;49.022;12.114;2023-05-20T13:23:54;97525.81;;;31.19;47.18
18795;BME280;29610;49.022;12.114;2023-05-20T13:26:43;97534.75;;;30.19;52.35
18795;BME280;29610;49.022;12.114;2023-05-20T13:29:33;97527.94;;;30.85;49.54
18795;BME280;29610;49.022;12.114;2023-05-20T13:32:23;97530.81;;;30.94;46.76
18795;BME280;29610;49.022;12.114;2023-05-20T13:35:12;97523.31;;;30.26;52.57
18795;BME280;29610;49.022;12.114;2023-05-20T13:38:03;97520.06;;;30.28;51.25
18795;BME280;29610;49.022;12.114;2023-05-20T13:40:52;97516.03;;;30.16;49.03
18795;BME280;29610;49.022;12.114;2023-05-20T13:43:41;97505.72;;;30.26;44.00
18795;BME280;29610;49.022;12.114;2023-05-20T13:46:29;97512.19;;;29.42;46.26
18795;BME280;29610;49.022;12.114;2023-05-20T13:49:20;97509.34;;;28.79;47.76
18795;BME280;29610;49.022;12.114;2023-05-20T13:52:09;97509.84;;;28.49;50.19
18795;BME280;29610;49.022;12.114;2023-05-20T13:54:58;97503.84;;;28.63;51.34
18795;BME280;29610;49.022;12.114;2023-05-20T13:57:47;97511.84;;;28.48;51.00
18795;BME280;29610;49.022;12.114;2023-05-20T14:00:36;97496.28;;;28.89;51.81
18795;BME280;29610;49.022;12.114;2023-05-20T14:03:25;97486.72;;;29.74;47.00
18795;BME280;29610;49.022;12.114;2023-05-20T14:06:15;97491.44;;;29.77;47.94
18795;BME280;29610;49.022;12.114;2023-05-20T14:09:06;97487.84;;;29.64;46.96
18795;BME280;29610;49.022;12.114;2023-05-20T14:11:56;97472.53;;;29.43;46.49
18795;BME280;29610;49.022;12.114;2023-05-20T14:14:45;97466.69;;;29.97;49.74
18795;BME280;29610;49.022;12.114;2023-05-20T14:17:34;97476.47;;;29.33;48.93
18795;BME280;29610;49.022;12.114;2023-05-20T14:20:23;97464.00;;;29.93;51.91
18795;BME280;29610;49.022;12.114;2023-05-20T14:23:13;97476.78;;;29.48;49.77
18795;BME280;29610;49.022;12.114;2023-05-20T14:26:02;97476.25;;;29.03;50.87
18795;BME280;29610;49.022;12.114;2023-05-20T14:28:51;97473.53;;;28.74;50.30
18795;BME280;29610;49.022;12.114;2023-05-20T14:31:42;97461.16;;;28.34;50.42
18795;BME280;29610;49.022;12.114;2023-05-20T14:34:31;97464.22;;;28.11;49.01
18795;BME280;29610;49.022;12.114;2023-05-20T14:37:20;97456.72;;;27.63;50.63
18795;BME280;29610;49.022;12.114;2023-05-20T14:40:12;97455.00;;;27.37;51.01
18795;BME280;29610;49.022;12.114;2023-05-20T14:43:01;97444.72;;;27.50;49.68